Ruby, Alaska
Current Conditions -  °F | °C
As of 5:56 PM on Wednesday 22 Oct 2014 (Local Time) from PARY Reporting Station
Overcast Overcast  
Wind Chill: 24°   Ceiling: 4300
Heat Index: 24°   Visibility: 10mi
Dew Point: 19°   Wind: 0mph
Humidity: 81%   Direction: NA
Pressure: 29.73"   Gusts: NA
Location:  64.74°N, 155.49°W
Report Text: PARY 230156Z AUTO 00000KT 10SM OVC043 M04/M07 A2973 RMK AO2 TSNO T10441072 SLP080 $
Loading
Personal Weather Stations






























Interactive Weather Map
Tropical Storm Tracking
New forecast layout! Learn more

10-Day Weather Forecast

Advertisements
Track Severe Weather on mobile